sensor_id;sensor_type;location;lat;lon;timestamp;temperature;humidity
47434;SHT31;33184;48.774;8.918;2023-04-24T00:04:37;10.62;79.96
47434;SHT31;33184;48.774;8.918;2023-04-24T00:10:00;10.65;79.68
47434;SHT31;33184;48.774;8.918;2023-04-24T00:15:21;10.69;79.60
47434;SHT31;33184;48.774;8.918;2023-04-24T00:20:41;10.75;78.65
47434;SHT31;33184;48.774;8.918;2023-04-24T00:26:04;10.76;78.35
47434;SHT31;33184;48.774;8.918;2023-04-24T00:31:24;10.80;77.81
47434;SHT31;33184;48.774;8.918;2023-04-24T00:36:45;10.77;77.82
47434;SHT31;33184;48.774;8.918;2023-04-24T00:42:07;10.79;78.09
47434;SHT31;33184;48.774;8.918;2023-04-24T00:47:28;10.73;78.59
47434;SHT31;33184;48.774;8.918;2023-04-24T00:52:49;10.68;78.53
47434;SHT31;33184;48.774;8.918;2023-04-24T00:58:10;10.65;78.92
47434;SHT31;33184;48.774;8.918;2023-04-24T01:03:31;10.65;79.27
47434;SHT31;33184;48.774;8.918;2023-04-24T01:08:52;10.62;79.27
47434;SHT31;33184;48.774;8.918;2023-04-24T01:14:13;10.58;79.49
47434;SHT31;33184;48.774;8.918;2023-04-24T01:19:37;10.50;79.84
47434;SHT31;33184;48.774;8.918;2023-04-24T01:24:58;10.46;80.08
47434;SHT31;33184;48.774;8.918;2023-04-24T01:30:19;10.43;80.46
47434;SHT31;33184;48.774;8.918;2023-04-24T01:35:40;10.38;81.20
47434;SHT31;33184;48.774;8.918;2023-04-24T01:41:01;10.31;81.47
47434;SHT31;33184;48.774;8.918;2023-04-24T01:46:21;10.31;81.71
47434;SHT31;33184;48.774;8.918;2023-04-24T01:51:42;10.24;81.90
47434;SHT31;33184;48.774;8.918;2023-04-24T01:57:03;10.22;82.03
47434;SHT31;33184;48.774;8.918;2023-04-24T02:02:24;10.15;82.43
47434;SHT31;33184;48.774;8.918;2023-04-24T02:07:50;10.15;82.61
47434;SHT31;33184;48.774;8.918;2023-04-24T02:13:11;10.21;82.76
47434;SHT31;33184;48.774;8.918;2023-04-24T02:18:31;10.28;82.87
47434;SHT31;33184;48.774;8.918;2023-04-24T02:23:52;10.31;83.65
47434;SHT31;33184;48.774;8.918;2023-04-24T02:29:12;10.18;85.14
47434;SHT31;33184;48.774;8.918;2023-04-24T02:34:33;10.02;86.20
47434;SHT31;33184;48.774;8.918;2023-04-24T02:39:53;9.98;86.50
47434;SHT31;33184;48.774;8.918;2023-04-24T02:45:16;9.98;86.79
47434;SHT31;33184;48.774;8.918;2023-04-24T02:50:36;9.95;86.89
47434;SHT31;33184;48.774;8.918;2023-04-24T02:55:58;9.86;87.22
47434;SHT31;33184;48.774;8.918;2023-04-24T03:01:19;9.83;87.23
47434;SHT31;33184;48.774;8.918;2023-04-24T03:06:40;9.73;87.47
47434;SHT31;33184;48.774;8.918;2023-04-24T03:12:01;9.66;87.61
47434;SHT31;33184;48.774;8.918;2023-04-24T03:17:23;9.64;87.62
47434;SHT31;33184;48.774;8.918;2023-04-24T03:22:43;9.61;87.62
47434;SHT31;33184;48.774;8.918;2023-04-24T03:28:05;9.53;87.77
47434;SHT31;33184;48.774;8.918;2023-04-24T03:33:32;9.40;88.28
47434;SHT31;33184;48.774;8.918;2023-04-24T03:38:55;9.32;88.86
47434;SHT31;33184;48.774;8.918;2023-04-24T03:44:38;9.33;89.22
47434;SHT31;33184;48.774;8.918;2023-04-24T03:49:59;9.35;89.16
47434;SHT31;33184;48.774;8.918;2023-04-24T03:55:20;9.40;89.23
47434;SHT31;33184;48.774;8.918;2023-04-24T04:00:42;9.48;89.16
47434;SHT31;33184;48.774;8.918;2023-04-24T04:06:23;9.44;90.11
47434;SHT31;33184;48.774;8.918;2023-04-24T04:11:46;9.26;84.40
47434;SHT31;33184;48.774;8.918;2023-04-24T04:17:06;9.05;82.38
47434;SHT31;33184;48.774;8.918;2023-04-24T04:22:27;8.82;83.04
47434;SHT31;33184;48.774;8.918;2023-04-24T04:27:48;8.69;84.50
47434;SHT31;33184;48.774;8.918;2023-04-24T04:33:10;8.61;84.57
47434;SHT31;33184;48.774;8.918;2023-04-24T04:38:31;8.55;85.30
47434;SHT31;33184;48.774;8.918;2023-04-24T04:44:00;8.50;85.39
47434;SHT31;33184;48.774;8.918;2023-04-24T04:49:21;8.47;85.40
47434;SHT31;33184;48.774;8.918;2023-04-24T04:54:45;8.40;85.56
47434;SHT31;33184;48.774;8.918;2023-04-24T05:00:07;8.36;85.72
47434;SHT31;33184;48.774;8.918;2023-04-24T05:05:39;8.33;86.05
47434;SHT31;33184;48.774;8.918;2023-04-24T05:11:09;8.41;86.10
47434;SHT31;33184;48.774;8.918;2023-04-24T05:16:31;8.52;85.92
47434;SHT31;33184;48.774;8.918;2023-04-24T05:21:52;8.40;85.47
47434;SHT31;33184;48.774;8.918;2023-04-24T05:27:13;8.38;85.85
47434;SHT31;33184;48.774;8.918;2023-04-24T05:32:35;8.42;85.75
47434;SHT31;33184;48.774;8.918;2023-04-24T05:37:57;8.44;85.15
47434;SHT31;33184;48.774;8.918;2023-04-24T05:43:18;8.51;85.39
47434;SHT31;33184;48.774;8.918;2023-04-24T05:48:38;8.54;85.22
47434;SHT31;33184;48.774;8.918;2023-04-24T05:53:59;8.60;84.85
47434;SHT31;33184;48.774;8.918;2023-04-24T05:59:23;8.64;84.70
47434;SHT31;33184;48.774;8.918;2023-04-24T06:04:45;8.81;84.30
47434;SHT31;33184;48.774;8.918;2023-04-24T06:10:06;8.93;83.32
47434;SHT31;33184;48.774;8.918;2023-04-24T06:15:34;9.20;83.45
47434;SHT31;33184;48.774;8.918;2023-04-24T06:21:00;9.44;81.10
47434;SHT31;33184;48.774;8.918;2023-04-24T06:26:20;9.70;79.83
47434;SHT31;33184;48.774;8.918;2023-04-24T06:31:42;9.80;78.43
47434;SHT31;33184;48.774;8.918;2023-04-24T06:37:04;10.07;79.23
47434;SHT31;33184;48.774;8.918;2023-04-24T06:42:25;10.14;74.08
47434;SHT31;33184;48.774;8.918;2023-04-24T06:47:45;10.12;73.07
47434;SHT31;33184;48.774;8.918;2023-04-24T06:53:06;10.17;74.24
47434;SHT31;33184;48.774;8.918;2023-04-24T06:58:27;10.21;73.46
47434;SHT31;33184;48.774;8.918;2023-04-24T07:03:47;10.21;72.10
47434;SHT31;33184;48.774;8.918;2023-04-24T07:09:08;10.17;70.88
47434;SHT31;33184;48.774;8.918;2023-04-24T07:14:29;10.22;69.70
47434;SHT31;33184;48.774;8.918;2023-04-24T07:19:50;10.29;68.40
47434;SHT31;33184;48.774;8.918;2023-04-24T07:25:10;10.38;68.57
47434;SHT31;33184;48.774;8.918;2023-04-24T07:30:31;10.26;67.91
47434;SHT31;33184;48.774;8.918;2023-04-24T07:35:53;10.22;66.78
47434;SHT31;33184;48.774;8.918;2023-04-24T07:41:14;10.26;66.92
47434;SHT31;33184;48.774;8.918;2023-04-24T07:46:34;10.28;65.57
47434;SHT31;33184;48.774;8.918;2023-04-24T07:51:55;10.07;64.74
47434;SHT31;33184;48.774;8.918;2023-04-24T07:57:16;10.28;64.53
47434;SHT31;33184;48.774;8.918;2023-04-24T08:02:37;10.35;64.44
47434;SHT31;33184;48.774;8.918;2023-04-24T08:07:58;10.12;64.39
47434;SHT31;33184;48.774;8.918;2023-04-24T08:13:18;10.28;65.97
47434;SHT31;33184;48.774;8.918;2023-04-24T08:18:39;10.48;65.08
47434;SHT31;33184;48.774;8.918;2023-04-24T08:24:00;10.39;63.99
47434;SHT31;33184;48.774;8.918;2023-04-24T08:29:20;9.94;66.28
47434;SHT31;33184;48.774;8.918;2023-04-24T08:34:41;9.67;67.86
47434;SHT31;33184;48.774;8.918;2023-04-24T08:40:27;9.75;69.18
47434;SHT31;33184;48.774;8.918;2023-04-24T08:45:49;9.74;68.55
47434;SHT31;33184;48.774;8.918;2023-04-24T08:51:10;9.73;68.83
47434;SHT31;33184;48.774;8.918;2023-04-24T08:56:33;9.61;69.77
47434;SHT31;33184;48.774;8.918;2023-04-24T09:01:55;9.15;74.32
47434;SHT31;33184;48.774;8.918;2023-04-24T09:07:16;8.85;75.39
47434;SHT31;33184;48.774;8.918;2023-04-24T09:12:38;8.91;74.06
47434;SHT31;33184;48.774;8.918;2023-04-24T09:17:58;9.50;74.56
47434;SHT31;33184;48.774;8.918;2023-04-24T09:23:19;9.48;73.05
47434;SHT31;33184;48.774;8.918;2023-04-24T09:28:40;9.75;72.07
47434;SHT31;33184;48.774;8.918;2023-04-24T09:34:03;9.87;69.68
47434;SHT31;33184;48.774;8.918;2023-04-24T09:39:26;9.80;67.16
47434;SHT31;33184;48.774;8.918;2023-04-24T09:44:49;9.71;65.83
47434;SHT31;33184;48.774;8.918;2023-04-24T09:50:15;9.78;66.43
47434;SHT31;33184;48.774;8.918;2023-04-24T09:55:42;10.11;65.26
47434;SHT31;33184;48.774;8.918;2023-04-24T10:01:05;10.32;61.71
47434;SHT31;33184;48.774;8.918;2023-04-24T10:06:35;11.06;62.71
47434;SHT31;33184;48.774;8.918;2023-04-24T10:11:56;11.18;57.22
47434;SHT31;33184;48.774;8.918;2023-04-24T10:17:17;11.00;57.85
47434;SHT31;33184;48.774;8.918;2023-04-24T10:22:37;10.77;58.22
47434;SHT31;33184;48.774;8.918;2023-04-24T10:27:59;10.63;56.86
47434;SHT31;33184;48.774;8.918;2023-04-24T10:33:21;10.73;57.57
47434;SHT31;33184;48.774;8.918;2023-04-24T10:38:43;10.79;59.71
47434;SHT31;33184;48.774;8.918;2023-04-24T10:44:11;10.72;59.39
47434;SHT31;33184;48.774;8.918;2023-04-24T10:49:32;10.53;61.36
47434;SHT31;33184;48.774;8.918;2023-04-24T10:54:53;10.43;60.52
47434;SHT31;33184;48.774;8.918;2023-04-24T11:00:20;10.17;61.06
47434;SHT31;33184;48.774;8.918;2023-04-24T11:06:04;10.36;59.67
47434;SHT31;33184;48.774;8.918;2023-04-24T11:11:28;11.01;58.77
47434;SHT31;33184;48.774;8.918;2023-04-24T11:16:53;11.47;58.74
47434;SHT31;33184;48.774;8.918;2023-04-24T11:22:16;11.03;58.91
47434;SHT31;33184;48.774;8.918;2023-04-24T11:27:42;10.68;59.77
47434;SHT31;33184;48.774;8.918;2023-04-24T11:33:04;10.28;67.41
47434;SHT31;33184;48.774;8.918;2023-04-24T11:38:25;10.83;68.25
47434;SHT31;33184;48.774;8.918;2023-04-24T11:43:46;11.81;62.12
47434;SHT31;33184;48.774;8.918;2023-04-24T11:49:06;11.40;60.86
47434;SHT31;33184;48.774;8.918;2023-04-24T11:54:27;11.03;61.46
47434;SHT31;33184;48.774;8.918;2023-04-24T11:59:48;10.66;61.14
47434;SHT31;33184;48.774;8.918;2023-04-24T12:05:09;10.86;62.11
47434;SHT31;33184;48.774;8.918;2023-04-24T12:10:32;10.82;59.92
47434;SHT31;33184;48.774;8.918;2023-04-24T12:15:53;10.97;59.38
47434;SHT31;33184;48.774;8.918;2023-04-24T12:21:15;11.07;59.50
47434;SHT31;33184;48.774;8.918;2023-04-24T12:26:36;11.57;58.19
47434;SHT31;33184;48.774;8.918;2023-04-24T12:31:57;11.14;57.85
47434;SHT31;33184;48.774;8.918;2023-04-24T12:37:17;10.92;60.05
47434;SHT31;33184;48.774;8.918;2023-04-24T12:42:43;10.28;65.49
47434;SHT31;33184;48.774;8.918;2023-04-24T12:48:04;9.95;68.80
47434;SHT31;33184;48.774;8.918;2023-04-24T12:53:25;10.32;67.02
47434;SHT31;33184;48.774;8.918;2023-04-24T12:58:46;10.89;65.09
47434;SHT31;33184;48.774;8.918;2023-04-24T13:04:07;10.94;63.11
47434;SHT31;33184;48.774;8.918;2023-04-24T13:09:27;12.47;60.18
47434;SHT31;33184;48.774;8.918;2023-04-24T13:14:48;11.95;58.64
47434;SHT31;33184;48.774;8.918;2023-04-24T13:20:09;10.94;62.07
47434;SHT31;33184;48.774;8.918;2023-04-24T13:25:35;10.38;69.19
47434;SHT31;33184;48.774;8.918;2023-04-24T13:30:56;9.58;75.93
47434;SHT31;33184;48.774;8.918;2023-04-24T13:36:16;9.50;76.18
47434;SHT31;33184;48.774;8.918;2023-04-24T13:41:37;10.18;72.56
47434;SHT31;33184;48.774;8.918;2023-04-24T13:46:59;10.58;69.16
47434;SHT31;33184;48.774;8.918;2023-04-24T13:52:19;10.35;70.74
47434;SHT31;33184;48.774;8.918;2023-04-24T13:57:40;10.41;68.61
47434;SHT31;33184;48.774;8.918;2023-04-24T14:03:01;10.89;67.19
47434;SHT31;33184;48.774;8.918;2023-04-24T14:08:21;11.44;65.46
47434;SHT31;33184;48.774;8.918;2023-04-24T14:13:42;11.93;62.20
47434;SHT31;33184;48.774;8.918;2023-04-24T14:19:03;10.96;63.67
47434;SHT31;33184;48.774;8.918;2023-04-24T14:24:25;10.71;66.27
47434;SHT31;33184;48.774;8.918;2023-04-24T14:29:46;10.63;66.22
47434;SHT31;33184;48.774;8.918;2023-04-24T14:35:07;10.69;66.39
47434;SHT31;33184;48.774;8.918;2023-04-24T14:40:29;10.79;66.50
47434;SHT31;33184;48.774;8.918;2023-04-24T14:45:51;10.87;65.76
47434;SHT31;33184;48.774;8.918;2023-04-24T14:51:12;10.75;65.53
47434;SHT31;33184;48.774;8.918;2023-04-24T14:56:33;10.59;65.81
47434;SHT31;33184;48.774;8.918;2023-04-24T15:01:53;10.48;65.68
47434;SHT31;33184;48.774;8.918;2023-04-24T15:07:17;10.35;65.70
47434;SHT31;33184;48.774;8.918;2023-04-24T15:12:38;10.19;66.10
47434;SHT31;33184;48.774;8.918;2023-04-24T15:17:59;10.15;71.08
47434;SHT31;33184;48.774;8.918;2023-04-24T15:23:19;9.78;74.91
47434;SHT31;33184;48.774;8.918;2023-04-24T15:28:40;9.58;75.08
47434;SHT31;33184;48.774;8.918;2023-04-24T15:34:00;9.64;75.30
47434;SHT31;33184;48.774;8.918;2023-04-24T15:39:22;10.89;73.95
47434;SHT31;33184;48.774;8.918;2023-04-24T15:44:43;12.20;66.66
47434;SHT31;33184;48.774;8.918;2023-04-24T15:50:04;12.60;62.69
47434;SHT31;33184;48.774;8.918;2023-04-24T15:55:27;12.65;63.06
47434;SHT31;33184;48.774;8.918;2023-04-24T16:00:48;12.68;60.46
47434;SHT31;33184;48.774;8.918;2023-04-24T16:06:08;11.55;62.28
47434;SHT31;33184;48.774;8.918;2023-04-24T16:11:32;11.41;61.54
47434;SHT31;33184;48.774;8.918;2023-04-24T16:16:53;11.31;63.22
47434;SHT31;33184;48.774;8.918;2023-04-24T16:22:15;11.16;62.79
47434;SHT31;33184;48.774;8.918;2023-04-24T16:27:35;11.07;60.30
47434;SHT31;33184;48.774;8.918;2023-04-24T16:32:56;11.11;59.02
47434;SHT31;33184;48.774;8.918;2023-04-24T16:38:17;11.37;59.63
47434;SHT31;33184;48.774;8.918;2023-04-24T16:43:37;11.82;57.51
47434;SHT31;33184;48.774;8.918;2023-04-24T16:48:58;11.90;56.12
47434;SHT31;33184;48.774;8.918;2023-04-24T16:54:18;11.64;56.33
47434;SHT31;33184;48.774;8.918;2023-04-24T16:59:40;11.43;58.06
47434;SHT31;33184;48.774;8.918;2023-04-24T17:05:00;11.25;58.92
47434;SHT31;33184;48.774;8.918;2023-04-24T17:10:21;10.99;59.72
47434;SHT31;33184;48.774;8.918;2023-04-24T17:15:41;10.87;60.31
47434;SHT31;33184;48.774;8.918;2023-04-24T17:21:02;10.77;61.09
47434;SHT31;33184;48.774;8.918;2023-04-24T17:26:23;10.77;61.21
47434;SHT31;33184;48.774;8.918;2023-04-24T17:31:43;10.77;61.18
47434;SHT31;33184;48.774;8.918;2023-04-24T17:37:04;10.69;61.47
47434;SHT31;33184;48.774;8.918;2023-04-24T17:42:24;10.61;61.66
47434;SHT31;33184;48.774;8.918;2023-04-24T17:47:45;10.52;62.97
47434;SHT31;33184;48.774;8.918;2023-04-24T17:53:06;10.45;63.35
47434;SHT31;33184;48.774;8.918;2023-04-24T17:58:27;10.38;63.35
47434;SHT31;33184;48.774;8.918;2023-04-24T18:03:48;10.35;63.62
47434;SHT31;33184;48.774;8.918;2023-04-24T18:09:09;10.31;64.33
47434;SHT31;33184;48.774;8.918;2023-04-24T18:14:29;10.22;64.80
47434;SHT31;33184;48.774;8.918;2023-04-24T18:19:50;10.14;65.52
47434;SHT31;33184;48.774;8.918;2023-04-24T18:25:12;10.02;65.91
47434;SHT31;33184;48.774;8.918;2023-04-24T18:30:32;9.90;66.90
47434;SHT31;33184;48.774;8.918;2023-04-24T18:35:54;9.84;67.47
47434;SHT31;33184;48.774;8.918;2023-04-24T18:41:15;9.80;68.03
47434;SHT31;33184;48.774;8.918;2023-04-24T18:46:37;9.70;68.59
47434;SHT31;33184;48.774;8.918;2023-04-24T18:52:00;9.67;68.76
47434;SHT31;33184;48.774;8.918;2023-04-24T18:57:21;9.53;69.08
47434;SHT31;33184;48.774;8.918;2023-04-24T19:02:47;9.46;69.34
47434;SHT31;33184;48.774;8.918;2023-04-24T19:08:08;9.35;69.54
47434;SHT31;33184;48.774;8.918;2023-04-24T19:13:28;9.29;69.61
47434;SHT31;33184;48.774;8.918;2023-04-24T19:18:49;9.26;70.07
47434;SHT31;33184;48.774;8.918;2023-04-24T19:24:10;9.26;70.25
47434;SHT31;33184;48.774;8.918;2023-04-24T19:29:30;9.11;71.47
47434;SHT31;33184;48.774;8.918;2023-04-24T19:34:52;9.03;71.65
47434;SHT31;33184;48.774;8.918;2023-04-24T19:40:12;8.99;71.88
47434;SHT31;33184;48.774;8.918;2023-04-24T19:45:33;8.96;72.08
47434;SHT31;33184;48.774;8.918;2023-04-24T19:50:54;8.96;72.06
47434;SHT31;33184;48.774;8.918;2023-04-24T19:56:14;8.96;72.18
47434;SHT31;33184;48.774;8.918;2023-04-24T20:01:35;8.99;72.59
47434;SHT31;33184;48.774;8.918;2023-04-24T20:06:56;8.89;72.55
47434;SHT31;33184;48.774;8.918;2023-04-24T20:12:17;8.79;73.25
47434;SHT31;33184;48.774;8.918;2023-04-24T20:17:38;8.74;73.35
47434;SHT31;33184;48.774;8.918;2023-04-24T20:22:59;8.68;73.03
47434;SHT31;33184;48.774;8.918;2023-04-24T20:28:20;8.61;72.99
47434;SHT31;33184;48.774;8.918;2023-04-24T20:33:41;8.52;73.06
47434;SHT31;33184;48.774;8.918;2023-04-24T20:39:01;8.42;73.08
47434;SHT31;33184;48.774;8.918;2023-04-24T20:44:24;8.38;73.65
47434;SHT31;33184;48.774;8.918;2023-04-24T20:49:44;8.31;73.69
47434;SHT31;33184;48.774;8.918;2023-04-24T20:55:06;8.12;74.04
47434;SHT31;33184;48.774;8.918;2023-04-24T21:00:27;7.90;74.89
47434;SHT31;33184;48.774;8.918;2023-04-24T21:05:48;7.83;74.94
47434;SHT31;33184;48.774;8.918;2023-04-24T21:11:08;7.81;74.72
47434;SHT31;33184;48.774;8.918;2023-04-24T21:16:29;7.82;74.38
47434;SHT31;33184;48.774;8.918;2023-04-24T21:21:50;7.85;74.50
47434;SHT31;33184;48.774;8.918;2023-04-24T21:27:10;7.83;74.06
47434;SHT31;33184;48.774;8.918;2023-04-24T21:32:31;7.78;74.15
47434;SHT31;33184;48.774;8.918;2023-04-24T21:37:52;7.69;74.36
47434;SHT31;33184;48.774;8.918;2023-04-24T21:43:12;7.66;74.96
47434;SHT31;33184;48.774;8.918;2023-04-24T21:48:33;7.55;75.19
47434;SHT31;33184;48.774;8.918;2023-04-24T21:53:53;7.54;75.36
47434;SHT31;33184;48.774;8.918;2023-04-24T21:59:14;7.51;75.70
47434;SHT31;33184;48.774;8.918;2023-04-24T22:04:34;7.51;76.38
47434;SHT31;33184;48.774;8.918;2023-04-24T22:09:56;7.49;76.52
47434;SHT31;33184;48.774;8.918;2023-04-24T22:15:17;7.54;76.40
47434;SHT31;33184;48.774;8.918;2023-04-24T22:20:38;7.58;76.15
47434;SHT31;33184;48.774;8.918;2023-04-24T22:25:59;7.70;75.62
47434;SHT31;33184;48.774;8.918;2023-04-24T22:31:20;7.85;75.10
47434;SHT31;33184;48.774;8.918;2023-04-24T22:36:40;7.83;75.04
47434;SHT31;33184;48.774;8.918;2023-04-24T22:42:01;7.81;74.97
47434;SHT31;33184;48.774;8.918;2023-04-24T22:47:22;7.79;75.28
47434;SHT31;33184;48.774;8.918;2023-04-24T22:52:42;7.79;75.72
47434;SHT31;33184;48.774;8.918;2023-04-24T22:58:04;7.81;75.91
47434;SHT31;33184;48.774;8.918;2023-04-24T23:03:25;7.87;75.95
47434;SHT31;33184;48.774;8.918;2023-04-24T23:08:46;7.79;75.93
47434;SHT31;33184;48.774;8.918;2023-04-24T23:14:06;7.67;76.06
47434;SHT31;33184;48.774;8.918;2023-04-24T23:19:27;7.65;75.93
47434;SHT31;33184;48.774;8.918;2023-04-24T23:24:48;7.63;75.96
47434;SHT31;33184;48.774;8.918;2023-04-24T23:30:09;7.63;75.63
47434;SHT31;33184;48.774;8.918;2023-04-24T23:35:31;7.65;75.42
47434;SHT31;33184;48.774;8.918;2023-04-24T23:40:52;7.67;75.70
47434;SHT31;33184;48.774;8.918;2023-04-24T23:46:12;7.65;75.89
47434;SHT31;33184;48.774;8.918;2023-04-24T23:51:39;7.58;76.51
47434;SHT31;33184;48.774;8.918;2023-04-24T23:57:01;7.55;76.78
